createdAt,value
2023-07-19T00:00:29.613Z,122
2023-07-19T00:01:34.592Z,124
2023-07-19T00:02:39.316Z,122
2023-07-19T00:03:44.194Z,124
2023-07-19T00:04:49.045Z,122
2023-07-19T00:05:53.772Z,122
2023-07-19T00:06:58.716Z,120
2023-07-19T00:08:03.403Z,122
2023-07-19T00:09:08.439Z,117
2023-07-19T00:10:13.348Z,120
2023-07-19T00:11:18.417Z,124
2023-07-19T00:12:24.613Z,124
2023-07-19T00:13:29.263Z,117
2023-07-19T00:14:34.016Z,120
2023-07-19T00:15:38.733Z,122
2023-07-19T00:16:43.592Z,124
2023-07-19T00:17:48.380Z,125
2023-07-19T00:18:59.806Z,120
2023-07-19T00:19:58.932Z,119
2023-07-19T00:21:03.688Z,122
2023-07-19T00:22:08.485Z,113
2023-07-19T00:23:13.349Z,120
2023-07-19T00:24:17.967Z,121
2023-07-19T00:25:22.855Z,119
2023-07-19T00:26:27.465Z,120
2023-07-19T00:27:32.261Z,118
2023-07-19T00:28:37.095Z,120
2023-07-19T00:29:41.716Z,117
2023-07-19T00:30:46.565Z,118
2023-07-19T00:31:51.320Z,116
2023-07-19T00:32:56.283Z,117
2023-07-19T00:34:01.050Z,113
2023-07-19T00:35:05.861Z,116
2023-07-19T00:36:11.153Z,114
2023-07-19T00:37:15.998Z,114
2023-07-19T00:38:20.765Z,115
2023-07-19T00:39:25.490Z,117
2023-07-19T00:40:30.294Z,115
2023-07-19T00:41:35.063Z,112
2023-07-19T00:42:39.743Z,115
2023-07-19T00:43:44.526Z,115
2023-07-19T00:44:49.227Z,113
2023-07-19T00:45:54.202Z,115
2023-07-19T00:46:59.022Z,117
2023-07-19T00:48:04.215Z,116
2023-07-19T00:49:09.128Z,116
2023-07-19T00:50:13.993Z,114
2023-07-19T00:51:18.794Z,113
2023-07-19T00:52:23.479Z,120
2023-07-19T00:53:28.249Z,114
2023-07-19T00:54:32.994Z,113
2023-07-19T00:55:37.813Z,119
2023-07-19T00:56:42.486Z,116
2023-07-19T00:57:48.345Z,115
2023-07-19T00:58:53.069Z,119
2023-07-19T00:59:57.887Z,115
2023-07-19T01:01:02.562Z,117
2023-07-19T01:02:07.588Z,118
2023-07-19T01:03:12.405Z,116
2023-07-19T01:04:17.238Z,119
2023-07-19T01:05:21.971Z,116
2023-07-19T01:06:26.728Z,119
2023-07-19T01:07:31.518Z,120
2023-07-19T01:08:36.324Z,117
2023-07-19T01:09:41.042Z,118
2023-07-19T01:10:45.812Z,117
2023-07-19T01:11:50.579Z,120
2023-07-19T01:12:55.357Z,116
2023-07-19T01:14:07.998Z,117
2023-07-19T01:15:12.787Z,116
2023-07-19T01:16:17.525Z,119
2023-07-19T01:17:22.380Z,119
2023-07-19T01:18:27.154Z,120
2023-07-19T01:19:32.894Z,118
2023-07-19T01:20:38.471Z,121
2023-07-19T01:21:44.272Z,119
2023-07-19T01:22:49.186Z,120
2023-07-19T01:23:53.887Z,120
2023-07-19T01:24:59.638Z,127
2023-07-19T01:26:04.351Z,117
2023-07-19T01:27:22.040Z,119
2023-07-19T01:28:14.370Z,122
2023-07-19T01:29:19.363Z,118
2023-07-19T01:30:24.107Z,117
2023-07-19T01:31:30.129Z,124
2023-07-19T01:32:34.758Z,120
2023-07-19T01:33:39.588Z,118
2023-07-19T01:34:44.228Z,120
2023-07-19T01:35:49.005Z,116
2023-07-19T01:36:53.862Z,118
2023-07-19T01:37:58.578Z,118
2023-07-19T01:39:03.305Z,120
2023-07-19T01:40:08.170Z,117
2023-07-19T01:41:12.883Z,118
2023-07-19T01:42:17.652Z,120
2023-07-19T01:43:22.449Z,122
2023-07-19T01:44:27.367Z,123
2023-07-19T01:45:32.171Z,121
2023-07-19T01:46:38.199Z,127
2023-07-19T01:47:44.021Z,122
2023-07-19T01:48:48.796Z,122
2023-07-19T01:49:53.587Z,117
2023-07-19T01:50:58.492Z,118
2023-07-19T01:52:03.382Z,118
2023-07-19T01:53:08.457Z,116
2023-07-19T01:54:13.425Z,118
2023-07-19T01:55:18.217Z,121
2023-07-19T01:56:22.977Z,121
2023-07-19T01:57:28.109Z,122
2023-07-19T01:58:39.175Z,123
2023-07-19T01:59:43.860Z,118
2023-07-19T02:00:48.875Z,119
2023-07-19T02:01:53.474Z,118
2023-07-19T02:02:58.288Z,119
2023-07-19T02:04:03.179Z,120
2023-07-19T02:05:10.051Z,121
2023-07-19T02:06:14.790Z,121
2023-07-19T02:07:19.702Z,126
2023-07-19T02:08:25.420Z,121
2023-07-19T02:09:30.199Z,125
2023-07-19T02:10:34.998Z,121
2023-07-19T02:11:39.691Z,122
2023-07-19T02:12:44.469Z,118
2023-07-19T02:13:49.407Z,121
2023-07-19T02:14:54.206Z,120
2023-07-19T02:15:59.068Z,123
2023-07-19T02:17:03.820Z,122
2023-07-19T02:18:11.526Z,124
2023-07-19T02:19:16.374Z,120
2023-07-19T02:20:21.618Z,121
2023-07-19T02:21:26.389Z,115
2023-07-19T02:22:31.261Z,116
2023-07-19T02:23:36.065Z,116
2023-07-19T02:24:40.738Z,114
2023-07-19T02:25:45.533Z,115
2023-07-19T02:26:53.055Z,121
2023-07-19T02:27:57.890Z,115
2023-07-19T02:29:02.623Z,119
2023-07-19T02:30:07.396Z,116
2023-07-19T02:31:12.391Z,121
2023-07-19T02:32:18.172Z,117
2023-07-19T02:33:23.157Z,116
2023-07-19T02:34:27.752Z,117
2023-07-19T02:35:32.495Z,119
2023-07-19T02:36:37.367Z,122
2023-07-19T02:37:42.041Z,121
2023-07-19T02:38:46.834Z,121
2023-07-19T02:39:51.629Z,116
2023-07-19T02:40:56.362Z,121
2023-07-19T02:42:01.272Z,117
2023-07-19T02:43:06.189Z,118
2023-07-19T02:44:10.988Z,119
2023-07-19T02:45:15.730Z,121
2023-07-19T02:46:20.488Z,121
2023-07-19T02:47:26.263Z,125
2023-07-19T02:48:31.117Z,124
2023-07-19T02:49:37.095Z,120
2023-07-19T02:50:40.507Z,117
2023-07-19T02:51:48.131Z,121
2023-07-19T02:52:52.930Z,124
2023-07-19T02:53:57.649Z,117
2023-07-19T02:55:02.731Z,120
2023-07-19T02:56:07.834Z,120
2023-07-19T02:57:12.418Z,120
2023-07-19T02:58:17.220Z,117
2023-07-19T02:59:22.044Z,116
2023-07-19T03:00:27.915Z,120
2023-07-19T03:01:32.589Z,120
2023-07-19T03:02:37.427Z,122
2023-07-19T03:03:42.216Z,120
2023-07-19T03:04:47.133Z,120
2023-07-19T03:05:53.020Z,122
2023-07-19T03:07:00.697Z,123
2023-07-19T03:08:05.740Z,119
2023-07-19T03:09:10.573Z,121
2023-07-19T03:10:16.018Z,121
2023-07-19T03:11:20.855Z,121
2023-07-19T03:12:25.400Z,121
2023-07-19T03:13:30.129Z,120
2023-07-19T03:14:34.902Z,123
2023-07-19T03:15:39.722Z,120
2023-07-19T03:16:44.601Z,122
2023-07-19T03:17:49.296Z,123
2023-07-19T03:18:54.021Z,119
2023-07-19T03:19:59.822Z,123
2023-07-19T03:21:04.840Z,118
2023-07-19T03:22:09.603Z,119
2023-07-19T03:23:14.336Z,120
2023-07-19T03:24:19.237Z,119
2023-07-19T03:25:23.859Z,118
2023-07-19T03:26:28.701Z,122
2023-07-19T03:27:33.468Z,121
2023-07-19T03:28:38.126Z,119
2023-07-19T03:29:42.938Z,119
2023-07-19T03:30:47.796Z,121
2023-07-19T03:31:52.508Z,118
2023-07-19T03:32:58.357Z,121
2023-07-19T03:34:03.157Z,117
2023-07-19T03:35:07.824Z,113
2023-07-19T03:36:12.621Z,117
2023-07-19T03:37:17.488Z,115
2023-07-19T03:38:22.201Z,118
2023-07-19T03:39:28.227Z,123
2023-07-19T03:40:34.042Z,119
2023-07-19T03:41:38.741Z,118
2023-07-19T03:42:43.532Z,118
2023-07-19T03:43:48.465Z,117
2023-07-19T03:44:53.343Z,115
2023-07-19T03:45:58.177Z,118
2023-07-19T03:47:02.852Z,117
2023-07-19T03:48:07.678Z,116
2023-07-19T03:49:12.760Z,119
2023-07-19T03:50:19.091Z,119
2023-07-19T03:51:24.231Z,119
2023-07-19T03:52:28.797Z,119
2023-07-19T03:53:33.491Z,121
2023-07-19T03:54:39.530Z,121
2023-07-19T03:55:44.382Z,121
2023-07-19T03:56:49.224Z,121
2023-07-19T03:57:54.174Z,122
2023-07-19T03:58:59.000Z,125
2023-07-19T04:00:04.041Z,123
2023-07-19T04:01:09.286Z,123
2023-07-19T04:02:15.620Z,119
2023-07-19T04:03:20.321Z,117
2023-07-19T04:04:25.082Z,121
2023-07-19T04:05:29.822Z,120
2023-07-19T04:06:34.599Z,122
2023-07-19T04:07:39.365Z,124
2023-07-19T04:08:44.255Z,121
2023-07-19T04:09:49.960Z,123
2023-07-19T04:10:55.699Z,126
2023-07-19T04:12:00.876Z,121
2023-07-19T04:13:05.730Z,123
2023-07-19T04:14:10.566Z,123
2023-07-19T04:15:15.393Z,122
2023-07-19T04:16:21.142Z,121
2023-07-19T04:17:26.970Z,124
2023-07-19T04:18:32.144Z,122
2023-07-19T04:19:37.107Z,124
2023-07-19T04:20:41.940Z,121
2023-07-19T04:21:46.934Z,121
2023-07-19T04:22:51.784Z,121
2023-07-19T04:23:59.230Z,121
2023-07-19T04:25:01.548Z,121
2023-07-19T04:26:06.332Z,121
2023-07-19T04:27:12.144Z,126
2023-07-19T04:28:16.907Z,119
2023-07-19T04:29:22.629Z,122
2023-07-19T04:30:27.436Z,119
2023-07-19T04:31:32.377Z,115
2023-07-19T04:32:38.388Z,121
2023-07-19T04:33:43.177Z,122
2023-07-19T04:34:47.869Z,116
2023-07-19T04:35:52.748Z,122
2023-07-19T04:36:57.950Z,121
2023-07-19T04:38:03.037Z,124
2023-07-19T04:39:09.160Z,119
2023-07-19T04:40:14.920Z,119
2023-07-19T04:41:21.265Z,120
2023-07-19T04:42:25.503Z,117
2023-07-19T04:43:30.280Z,119
2023-07-19T04:44:35.228Z,117
2023-07-19T04:45:40.100Z,121
2023-07-19T04:46:47.690Z,119
2023-07-19T04:47:52.458Z,118
2023-07-19T04:48:57.160Z,115
2023-07-19T04:50:02.028Z,118
2023-07-19T04:51:06.744Z,119
2023-07-19T04:52:11.531Z,120
2023-07-19T04:53:16.444Z,117
2023-07-19T04:54:22.397Z,120
2023-07-19T04:55:27.044Z,123
2023-07-19T04:56:32.119Z,126
2023-07-19T04:57:36.959Z,120
2023-07-19T04:58:41.628Z,127
2023-07-19T04:59:46.398Z,119
2023-07-19T05:00:51.222Z,118
2023-07-19T05:01:56.170Z,119
2023-07-19T05:03:02.101Z,122
2023-07-19T05:04:07.166Z,122
2023-07-19T05:05:12.102Z,121
2023-07-19T05:06:16.764Z,124
2023-07-19T05:07:21.735Z,121
2023-07-19T05:08:26.593Z,120
2023-07-19T05:09:31.381Z,122
2023-07-19T05:10:36.166Z,115
2023-07-19T05:11:40.874Z,119
2023-07-19T05:12:45.651Z,115
2023-07-19T05:13:51.918Z,121
2023-07-19T05:14:56.267Z,124
2023-07-19T05:16:01.172Z,119
2023-07-19T05:17:06.163Z,120
2023-07-19T05:18:10.941Z,122
2023-07-19T05:19:15.846Z,121
2023-07-19T05:20:20.533Z,123
2023-07-19T05:21:25.407Z,119
2023-07-19T05:22:30.169Z,118
2023-07-19T05:23:35.124Z,119
2023-07-19T05:24:39.905Z,115
2023-07-19T05:25:44.792Z,114
2023-07-19T05:26:49.423Z,119
2023-07-19T05:27:54.134Z,119
2023-07-19T05:28:59.023Z,118
2023-07-19T05:30:03.701Z,116
2023-07-19T05:31:09.065Z,112
2023-07-19T05:32:13.861Z,116
2023-07-19T05:33:18.558Z,114
2023-07-19T05:34:24.122Z,112
2023-07-19T05:35:30.185Z,112
2023-07-19T05:36:34.830Z,112
2023-07-19T05:37:39.683Z,109
2023-07-19T05:38:44.663Z,106
2023-07-19T05:39:52.035Z,107
2023-07-19T05:40:56.810Z,111
2023-07-19T05:42:04.515Z,108
2023-07-19T05:43:09.505Z,105
2023-07-19T05:44:14.204Z,107
2023-07-19T05:45:18.976Z,102
2023-07-19T05:46:23.899Z,106
2023-07-19T05:47:31.021Z,101
2023-07-19T05:48:34.509Z,107
2023-07-19T05:49:39.365Z,107
2023-07-19T05:50:44.121Z,104
2023-07-19T05:51:48.877Z,107
2023-07-19T05:52:53.722Z,100
2023-07-19T05:53:58.626Z,107
2023-07-19T05:55:06.390Z,105
2023-07-19T05:56:08.549Z,99
2023-07-19T05:57:13.491Z,116
2023-07-19T05:58:18.288Z,118
2023-07-19T05:59:26.330Z,112
2023-07-19T06:00:31.136Z,109
2023-07-19T06:01:35.971Z,111
2023-07-19T06:02:53.241Z,107
2023-07-19T06:03:45.480Z,108
2023-07-19T06:04:50.450Z,110
2023-07-19T06:05:54.984Z,116
2023-07-19T06:06:59.731Z,113
2023-07-19T06:08:14.261Z,112
2023-07-19T06:09:09.469Z,113
2023-07-19T06:10:14.243Z,110
2023-07-19T06:11:19.599Z,112
2023-07-19T06:12:23.902Z,118
2023-07-19T06:13:29.598Z,109
2023-07-19T06:14:34.571Z,113
2023-07-19T06:15:42.232Z,109
2023-07-19T06:16:45.780Z,112
2023-07-19T06:17:50.557Z,113
2023-07-19T06:18:58.275Z,108
2023-07-19T06:20:03.127Z,105
2023-07-19T06:21:09.144Z,102
2023-07-19T06:22:13.991Z,108
2023-07-19T06:23:21.111Z,121
2023-07-19T06:24:25.839Z,115
2023-07-19T06:25:30.819Z,108
2023-07-19T06:26:35.818Z,102
2023-07-19T06:27:40.597Z,95
2023-07-19T06:28:45.423Z,102
2023-07-19T06:29:50.351Z,112
2023-07-19T06:30:55.254Z,92
2023-07-19T06:32:01.220Z,93
2023-07-19T06:33:06.616Z,93
2023-07-19T06:34:10.716Z,92
2023-07-19T06:35:15.415Z,83
2023-07-19T06:36:20.190Z,113
2023-07-19T06:37:25.107Z,101
2023-07-19T06:38:30.102Z,87
2023-07-19T06:39:35.780Z,81
2023-07-19T06:40:40.672Z,79
2023-07-19T06:41:48.055Z,78
2023-07-19T06:42:52.927Z,73
2023-07-19T06:43:57.673Z,79
2023-07-19T06:45:02.663Z,76
2023-07-19T06:46:09.578Z,78
2023-07-19T06:47:12.380Z,68
2023-07-19T06:48:17.010Z,69
2023-07-19T06:49:22.843Z,65
2023-07-19T06:50:27.804Z,70
2023-07-19T06:51:32.685Z,71
2023-07-19T06:52:37.404Z,69
2023-07-19T06:53:42.164Z,78
2023-07-19T06:54:46.952Z,70
2023-07-19T06:55:52.720Z,65
2023-07-19T06:56:57.566Z,64
2023-07-19T06:58:03.311Z,54
2023-07-19T06:59:08.034Z,55
2023-07-19T07:00:12.854Z,52
2023-07-19T07:01:17.841Z,57
2023-07-19T07:02:22.660Z,53
2023-07-19T07:03:27.452Z,60
2023-07-19T07:04:32.128Z,58
2023-07-19T07:05:36.995Z,49
2023-07-19T07:06:41.687Z,49
2023-07-19T07:07:46.402Z,48
2023-07-19T07:08:51.520Z,51
2023-07-19T07:09:56.229Z,50
2023-07-19T07:11:01.047Z,47
2023-07-19T07:12:05.800Z,33
2023-07-19T07:13:12.114Z,39
2023-07-19T07:14:16.841Z,42
2023-07-19T07:15:21.705Z,25
2023-07-19T07:16:26.693Z,29
2023-07-19T07:17:32.684Z,46
2023-07-19T07:18:37.632Z,50
2023-07-19T07:19:42.468Z,37
2023-07-19T07:20:48.234Z,76
2023-07-19T07:21:53.916Z,63
2023-07-19T07:22:58.854Z,46
2023-07-19T07:24:03.592Z,38
2023-07-19T07:25:08.712Z,48
2023-07-19T07:26:13.620Z,41
2023-07-19T07:27:18.393Z,42
2023-07-19T07:28:23.246Z,40
2023-07-19T07:29:27.911Z,32
2023-07-19T07:30:32.661Z,42
2023-07-19T07:31:37.689Z,38
2023-07-19T07:32:42.709Z,25
2023-07-19T07:33:47.527Z,39
2023-07-19T07:34:52.491Z,62
2023-07-19T07:35:57.308Z,46
2023-07-19T07:37:02.302Z,62
2023-07-19T07:38:07.431Z,64
2023-07-19T07:39:12.353Z,77
2023-07-19T07:40:17.423Z,69
2023-07-19T07:41:22.965Z,58
2023-07-19T07:42:27.442Z,32
2023-07-19T07:43:32.444Z,62
2023-07-19T07:44:37.437Z,50
2023-07-19T07:45:42.511Z,55
2023-07-19T07:46:47.528Z,40
2023-07-19T07:47:53.677Z,50
2023-07-19T07:48:58.387Z,43
2023-07-19T07:50:03.263Z,48
2023-07-19T07:51:08.222Z,50
2023-07-19T07:52:13.026Z,40
2023-07-19T07:53:17.848Z,80
2023-07-19T07:54:22.760Z,51
2023-07-19T07:55:27.543Z,44
2023-07-19T07:56:32.321Z,41
2023-07-19T07:57:37.007Z,55
2023-07-19T07:58:41.796Z,70
2023-07-19T07:59:47.532Z,62
2023-07-19T08:00:52.427Z,52
2023-07-19T08:01:57.299Z,70
2023-07-19T08:03:02.319Z,67
2023-07-19T08:04:07.191Z,68
2023-07-19T08:05:11.948Z,79
2023-07-19T08:06:16.715Z,72
2023-07-19T08:07:21.561Z,69
2023-07-19T08:08:26.361Z,40
2023-07-19T08:09:31.374Z,56
2023-07-19T08:10:36.099Z,58
2023-07-19T08:11:40.981Z,75
2023-07-19T08:12:45.812Z,53
2023-07-19T08:13:50.672Z,64
2023-07-19T08:14:55.438Z,59
2023-07-19T08:16:00.201Z,58
2023-07-19T08:17:04.958Z,51
2023-07-19T08:18:09.794Z,52
2023-07-19T08:19:14.397Z,55
2023-07-19T08:20:19.198Z,46
2023-07-19T08:21:34.563Z,45
2023-07-19T08:22:28.733Z,35
2023-07-19T08:23:34.535Z,44
2023-07-19T08:24:39.323Z,55
2023-07-19T08:25:44.312Z,44
2023-07-19T08:26:49.289Z,54
2023-07-19T08:27:54.175Z,46
2023-07-19T08:28:58.944Z,54
2023-07-19T08:30:03.779Z,44
2023-07-19T08:31:11.880Z,41
2023-07-19T08:32:17.620Z,56
2023-07-19T08:33:22.358Z,38
2023-07-19T08:34:27.242Z,28
2023-07-19T08:35:32.083Z,46
2023-07-19T08:36:37.039Z,55
2023-07-19T08:37:41.611Z,44
2023-07-19T08:38:47.730Z,40
2023-07-19T08:39:52.455Z,48
2023-07-19T08:40:57.248Z,57
2023-07-19T08:42:04.898Z,52
2023-07-19T08:43:09.895Z,44
2023-07-19T08:44:14.940Z,38
2023-07-19T08:45:19.631Z,51
2023-07-19T08:46:25.642Z,34
2023-07-19T08:47:31.550Z,47
2023-07-19T08:48:36.208Z,45
2023-07-19T08:49:41.018Z,38
2023-07-19T08:50:46.384Z,32
2023-07-19T08:51:51.071Z,27
2023-07-19T08:52:55.917Z,39
2023-07-19T08:54:00.590Z,33
2023-07-19T08:55:05.300Z,51
2023-07-19T08:56:10.136Z,44
2023-07-19T08:57:17.559Z,35
2023-07-19T08:58:24.021Z,26
2023-07-19T08:59:32.552Z,37
2023-07-19T09:00:34.548Z,33
2023-07-19T09:01:39.490Z,33
2023-07-19T09:02:44.603Z,40
2023-07-19T09:03:49.541Z,34
2023-07-19T09:04:54.449Z,44
2023-07-19T09:06:09.431Z,30
2023-07-19T09:07:14.333Z,47
2023-07-19T09:08:19.053Z,44
2023-07-19T09:09:23.805Z,56
2023-07-19T09:10:29.489Z,42
2023-07-19T09:11:34.378Z,42
2023-07-19T09:12:39.135Z,56
2023-07-19T09:13:46.257Z,58
2023-07-19T09:14:51.173Z,36
2023-07-19T09:15:55.957Z,25
2023-07-19T09:17:02.245Z,37
2023-07-19T09:18:11.457Z,53
2023-07-19T09:19:16.177Z,44
2023-07-19T09:20:20.981Z,51
2023-07-19T09:21:26.897Z,35
2023-07-19T09:22:41.918Z,38
2023-07-19T09:23:46.741Z,37
2023-07-19T09:24:51.461Z,41
2023-07-19T09:26:01.466Z,40
2023-07-19T09:27:06.801Z,34
2023-07-19T09:28:11.793Z,26
2023-07-19T09:29:16.678Z,33
2023-07-19T09:30:21.539Z,25
2023-07-19T09:31:26.426Z,25
2023-07-19T09:32:32.147Z,52
2023-07-19T09:33:37.184Z,44
2023-07-19T09:34:43.294Z,32
2023-07-19T09:35:48.202Z,37
2023-07-19T09:36:54.034Z,58
2023-07-19T09:37:59.298Z,42
2023-07-19T09:39:04.592Z,39
2023-07-19T09:40:11.693Z,35
2023-07-19T09:41:17.690Z,33
2023-07-19T09:42:22.658Z,38
2023-07-19T09:43:27.494Z,46
2023-07-19T09:44:33.557Z,43
2023-07-19T09:45:41.670Z,38
2023-07-19T09:46:46.735Z,26
2023-07-19T09:47:58.753Z,34
2023-07-19T09:49:03.702Z,44
2023-07-19T09:50:09.613Z,46
2023-07-19T09:51:14.469Z,42
2023-07-19T09:52:22.381Z,43
2023-07-19T09:53:27.270Z,42
2023-07-19T09:54:32.146Z,61
2023-07-19T09:55:37.031Z,38
2023-07-19T09:56:43.184Z,39
2023-07-19T09:57:48.218Z,36
2023-07-19T09:58:56.145Z,25
2023-07-19T10:00:01.012Z,38
2023-07-19T10:01:05.756Z,68
2023-07-19T10:02:10.702Z,43
2023-07-19T10:03:18.678Z,41
2023-07-19T10:04:22.394Z,49
2023-07-19T10:05:35.442Z,53
2023-07-19T10:06:40.386Z,40
2023-07-19T10:07:51.344Z,39
2023-07-19T10:08:49.880Z,47
2023-07-19T10:09:54.821Z,25
2023-07-19T10:11:05.164Z,37
2023-07-19T10:12:10.034Z,54
2023-07-19T10:13:19.957Z,43
2023-07-19T10:14:33.452Z,30
2023-07-19T10:15:29.673Z,36
2023-07-19T10:16:34.818Z,40
2023-07-19T10:17:39.567Z,38
2023-07-19T10:18:49.385Z,42
2023-07-19T10:20:04.682Z,37
2023-07-19T10:21:16.146Z,25
2023-07-19T10:22:21.134Z,60
2023-07-19T10:23:26.045Z,52
2023-07-19T10:24:30.878Z,45
2023-07-19T10:25:36.947Z,40
2023-07-19T10:26:41.861Z,29
2023-07-19T10:27:46.965Z,46
2023-07-19T10:28:56.917Z,63
2023-07-19T10:30:04.570Z,64
2023-07-19T10:32:14.622Z,48
2023-07-19T10:33:22.807Z,36
2023-07-19T10:34:38.735Z,34
2023-07-19T10:35:32.640Z,44
2023-07-19T10:36:38.692Z,25
2023-07-19T10:37:52.678Z,41
2023-07-19T10:38:56.340Z,48
2023-07-19T10:40:01.449Z,44
2023-07-19T10:41:06.275Z,35
2023-07-19T10:42:11.082Z,35
2023-07-19T10:43:22.425Z,31
2023-07-19T10:44:22.876Z,55
2023-07-19T10:45:30.531Z,48
2023-07-19T10:46:35.242Z,37
2023-07-19T10:47:40.046Z,25
2023-07-19T10:48:45.108Z,32
2023-07-19T10:49:53.003Z,46
2023-07-19T10:50:58.048Z,44
2023-07-19T10:52:05.702Z,39
2023-07-19T10:53:11.017Z,55
2023-07-19T10:54:15.772Z,48
2023-07-19T10:55:38.746Z,50
2023-07-19T10:56:26.327Z,42
2023-07-19T10:57:31.115Z,35
2023-07-19T10:58:35.875Z,33
2023-07-19T10:59:40.703Z,55
2023-07-19T11:00:46.021Z,29
2023-07-19T11:01:50.869Z,27
2023-07-19T11:02:55.844Z,25
2023-07-19T11:04:00.666Z,34
2023-07-19T11:05:11.143Z,51
2023-07-19T11:06:15.986Z,30
2023-07-19T11:07:21.163Z,31
2023-07-19T11:08:26.018Z,44
2023-07-19T11:09:32.625Z,38
2023-07-19T11:10:38.412Z,40
2023-07-19T11:11:43.353Z,30
2023-07-19T11:12:48.257Z,68
2023-07-19T11:13:53.133Z,62
2023-07-19T11:14:57.881Z,42
2023-07-19T11:16:02.924Z,38
2023-07-19T11:17:07.891Z,28
2023-07-19T11:18:12.890Z,38
2023-07-19T11:19:17.799Z,46
2023-07-19T11:20:22.800Z,69
2023-07-19T11:21:32.674Z,42
2023-07-19T11:22:37.397Z,40
2023-07-19T11:23:42.546Z,35
2023-07-19T11:24:48.428Z,41
2023-07-19T11:25:56.024Z,74
2023-07-19T11:27:05.944Z,43
2023-07-19T11:28:15.015Z,34
2023-07-19T11:29:31.504Z,30
2023-07-19T11:30:40.195Z,37
2023-07-19T11:31:47.852Z,31
2023-07-19T11:32:52.688Z,35
2023-07-19T11:34:02.626Z,50
2023-07-19T11:35:17.301Z,38
2023-07-19T11:36:23.861Z,54
2023-07-19T11:37:31.087Z,42
2023-07-19T11:38:36.142Z,32
2023-07-19T11:39:40.841Z,68
2023-07-19T11:40:45.649Z,45
2023-07-19T11:41:50.478Z,33
2023-07-19T11:42:55.245Z,53
2023-07-19T11:44:00.059Z,92
2023-07-19T11:45:04.979Z,50
2023-07-19T11:46:15.594Z,26
2023-07-19T11:47:20.420Z,54
2023-07-19T11:48:27.095Z,42
2023-07-19T11:49:30.060Z,62
2023-07-19T11:50:34.738Z,45
2023-07-19T11:51:39.421Z,75
2023-07-19T11:52:44.201Z,45
2023-07-19T11:53:51.950Z,62
2023-07-19T11:54:57.058Z,58
2023-07-19T11:57:07.953Z,39
2023-07-19T11:58:12.743Z,38
2023-07-19T11:59:18.542Z,49
2023-07-19T12:00:23.192Z,56
2023-07-19T12:01:28.196Z,43
2023-07-19T12:02:33.033Z,42
2023-07-19T12:03:37.846Z,35
2023-07-19T12:04:42.782Z,33
2023-07-19T12:05:47.564Z,59
2023-07-19T12:06:52.486Z,63
2023-07-19T12:07:57.430Z,62
2023-07-19T12:09:02.185Z,44
2023-07-19T12:10:07.038Z,62
2023-07-19T12:11:12.457Z,50
2023-07-19T12:12:17.330Z,54
2023-07-19T12:13:22.322Z,48
2023-07-19T12:14:29.162Z,60
2023-07-19T12:15:32.831Z,32
2023-07-19T12:16:37.903Z,48
2023-07-19T12:17:42.669Z,55
2023-07-19T12:18:48.248Z,59
2023-07-19T12:19:53.088Z,44
2023-07-19T12:20:58.166Z,65
2023-07-19T12:22:13.984Z,80
2023-07-19T12:23:08.084Z,64
2023-07-19T12:24:12.988Z,64
2023-07-19T12:25:19.379Z,60
2023-07-19T12:27:29.448Z,58
2023-07-19T12:28:34.251Z,33
2023-07-19T12:29:52.676Z,48
2023-07-19T12:30:45.021Z,61
2023-07-19T12:31:49.735Z,43
2023-07-19T12:32:54.726Z,25
2023-07-19T12:33:59.833Z,67
2023-07-19T12:35:08.021Z,74
2023-07-19T12:36:13.143Z,36
2023-07-19T12:37:17.893Z,28
2023-07-19T12:38:22.697Z,51
2023-07-19T12:39:27.441Z,67
2023-07-19T12:40:32.319Z,70
2023-07-19T12:41:38.921Z,71
2023-07-19T12:42:41.842Z,62
2023-07-19T12:43:46.517Z,36
2023-07-19T12:44:51.449Z,44
2023-07-19T12:45:56.480Z,25
2023-07-19T12:47:01.501Z,26
2023-07-19T12:48:06.463Z,29
2023-07-19T12:49:10.933Z,39
2023-07-19T12:50:15.637Z,61
2023-07-19T12:51:20.513Z,53
2023-07-19T12:52:28.024Z,70
2023-07-19T12:53:29.955Z,95
2023-07-19T12:54:34.866Z,67
2023-07-19T12:55:39.754Z,69
2023-07-19T12:56:44.696Z,77
2023-07-19T12:57:49.559Z,37
2023-07-19T12:58:54.305Z,41
2023-07-19T12:59:59.195Z,42
2023-07-19T13:01:04.224Z,53
2023-07-19T13:02:10.261Z,45
2023-07-19T13:03:15.194Z,34
2023-07-19T13:04:19.978Z,38
2023-07-19T13:05:24.753Z,44
2023-07-19T13:06:29.582Z,61
2023-07-19T13:07:34.486Z,61
2023-07-19T13:08:39.373Z,76
2023-07-19T13:09:44.335Z,57
2023-07-19T13:10:49.055Z,76
2023-07-19T13:11:53.830Z,82
2023-07-19T13:12:58.646Z,71
2023-07-19T13:14:03.428Z,64
2023-07-19T13:15:10.993Z,74
2023-07-19T13:16:16.052Z,57
2023-07-19T13:17:22.782Z,35
2023-07-19T13:18:26.517Z,37
2023-07-19T13:19:31.523Z,49
2023-07-19T13:20:37.592Z,42
2023-07-19T13:21:42.449Z,53
2023-07-19T13:22:49.014Z,57
2023-07-19T13:23:54.366Z,59
2023-07-19T13:24:58.833Z,75
2023-07-19T13:26:03.859Z,66
2023-07-19T13:27:08.526Z,48
2023-07-19T13:28:13.403Z,51
2023-07-19T13:29:19.435Z,58
2023-07-19T13:30:25.157Z,61
2023-07-19T13:31:29.589Z,61
2023-07-19T13:32:34.176Z,59
2023-07-19T13:33:38.993Z,78
2023-07-19T13:34:44.561Z,73
2023-07-19T13:36:55.245Z,57
2023-07-19T13:39:04.146Z,70
2023-07-19T13:40:10.113Z,58
2023-07-19T13:41:15.228Z,61
2023-07-19T13:42:20.271Z,74
2023-07-19T13:43:25.562Z,57
2023-07-19T13:44:30.522Z,65
2023-07-19T13:45:35.468Z,74
2023-07-19T13:46:40.273Z,77
2023-07-19T13:47:48.238Z,77
2023-07-19T13:48:53.298Z,86
2023-07-19T13:50:00.499Z,75
2023-07-19T13:51:07.682Z,81
2023-07-19T13:52:12.530Z,77
2023-07-19T13:53:17.368Z,67
2023-07-19T13:54:22.141Z,56
2023-07-19T13:55:26.771Z,63
2023-07-19T13:56:31.680Z,63
2023-07-19T13:57:36.875Z,59
2023-07-19T13:58:41.617Z,67
2023-07-19T13:59:46.494Z,80
2023-07-19T14:00:51.201Z,66
2023-07-19T14:01:56.137Z,63
2023-07-19T14:03:00.978Z,63
2023-07-19T14:04:05.794Z,71
2023-07-19T14:05:11.092Z,80
2023-07-19T14:06:16.898Z,64
2023-07-19T14:07:20.656Z,56
2023-07-19T14:08:25.326Z,68
2023-07-19T14:09:30.066Z,55
2023-07-19T14:10:34.918Z,76
2023-07-19T14:11:41.004Z,62
2023-07-19T14:12:45.661Z,61
2023-07-19T14:14:55.266Z,65
2023-07-19T14:17:04.706Z,63
2023-07-19T14:18:09.777Z,57
2023-07-19T14:19:17.050Z,65
2023-07-19T14:20:19.745Z,71
2023-07-19T14:21:24.569Z,69
2023-07-19T14:22:30.431Z,62
2023-07-19T14:23:35.305Z,60
2023-07-19T14:24:41.793Z,67
2023-07-19T14:25:46.018Z,57
2023-07-19T14:26:51.048Z,50
2023-07-19T14:27:56.749Z,69
2023-07-19T14:29:01.517Z,80
2023-07-19T14:30:06.526Z,74
2023-07-19T14:31:14.427Z,72
2023-07-19T14:32:18.261Z,75
2023-07-19T14:33:22.935Z,72
2023-07-19T14:34:27.785Z,71
2023-07-19T14:35:35.495Z,73
2023-07-19T14:36:40.399Z,63
2023-07-19T14:37:45.047Z,45
2023-07-19T14:38:49.755Z,46
2023-07-19T14:39:54.553Z,60
2023-07-19T14:41:00.482Z,56
2023-07-19T14:42:05.204Z,42
2023-07-19T14:43:10.125Z,56
2023-07-19T14:44:15.047Z,56
2023-07-19T14:45:20.023Z,54
2023-07-19T14:46:25.189Z,56
2023-07-19T14:47:29.604Z,72
2023-07-19T14:48:34.275Z,55
2023-07-19T14:49:40.039Z,63
2023-07-19T14:50:44.786Z,57
2023-07-19T14:51:49.723Z,61
2023-07-19T14:53:08.045Z,74
2023-07-19T14:54:01.132Z,69
2023-07-19T14:55:05.919Z,77
2023-07-19T14:56:11.035Z,66
2023-07-19T14:57:16.748Z,67
2023-07-19T14:58:21.830Z,62
2023-07-19T14:59:26.641Z,64
2023-07-19T15:01:36.512Z,67
2023-07-19T15:02:41.251Z,64
2023-07-19T15:03:45.962Z,67
2023-07-19T15:04:50.912Z,52
2023-07-19T15:05:55.667Z,49
2023-07-19T15:07:04.067Z,60
2023-07-19T15:08:09.145Z,64
2023-07-19T15:09:14.122Z,62
2023-07-19T15:10:18.866Z,41
2023-07-19T15:11:23.775Z,69
2023-07-19T15:12:28.642Z,62
2023-07-19T15:13:33.449Z,53
2023-07-19T15:14:38.193Z,70
2023-07-19T15:15:46.171Z,63
2023-07-19T15:16:48.185Z,76
2023-07-19T15:17:52.839Z,46
2023-07-19T15:18:57.990Z,39
2023-07-19T15:20:02.877Z,44
2023-07-19T15:21:08.479Z,47
2023-07-19T15:22:13.469Z,58
2023-07-19T15:23:20.061Z,36
2023-07-19T15:24:23.781Z,58
2023-07-19T15:25:29.985Z,44